Time;durP1;ratioP1;P1;durP2;ratioP2;P2;SDS_P1;SDS_P2;PMS_P1;PMS_P2;Temp;Humidity;BMP_temperature;BMP_pressure;BME280_temperature;BME280_humidity;BME280_pressure;Samples;Min_cycle;Max_cycle;Signal;HPM_P1;HPM_P2
2021/09/29 00:00:55;;;;;;;13.55;11.93;;;15.10;99.90;;;;;;5022784;28;20034;-64
2021/09/29 00:03:21;;;;;;;12.25;11.00;;;15.00;99.90;;;;;;5022744;28;20463;-63
2021/09/29 00:05:46;;;;;;;12.02;10.93;;;15.10;99.90;;;;;;5006923;28;20037;-64
2021/09/29 00:08:12;;;;;;;12.85;11.55;;;15.00;99.90;;;;;;5023568;28;20032;-63
2021/09/29 00:10:41;;;;;;;14.55;11.32;;;15.00;99.90;;;;;;5021531;28;20042;-64
2021/09/29 00:13:07;;;;;;;13.05;11.70;;;15.00;99.90;;;;;;5023657;28;20049;-63
2021/09/29 00:15:33;;;;;;;13.80;11.73;;;15.00;99.90;;;;;;5022580;28;20097;-64
2021/09/29 00:17:58;;;;;;;14.40;12.85;;;15.00;99.90;;;;;;5024486;28;20112;-62
2021/09/29 00:20:24;;;;;;;13.93;12.50;;;15.00;99.90;;;;;;5024243;28;20053;-64
2021/09/29 00:22:50;;;;;;;15.90;12.95;;;15.00;99.90;;;;;;5024864;28;20670;-64
2021/09/29 00:25:16;;;;;;;14.70;13.20;;;15.00;99.90;;;;;;5025367;28;20108;-64
2021/09/29 00:27:43;;;;;;;14.10;12.80;;;15.00;99.90;;;;;;5024349;28;20501;-64
2021/09/29 00:30:11;;;;;;;14.48;12.98;;;15.00;99.90;;;;;;5022792;28;20056;-65
2021/09/29 00:32:43;;;;;;;14.85;13.35;;;15.00;99.90;;;;;;5025415;28;20065;-63
2021/09/29 00:35:12;;;;;;;13.85;12.55;;;15.00;99.90;;;;;;5022450;28;20124;-63
2021/09/29 00:37:38;;;;;;;14.80;13.27;;;15.00;99.90;;;;;;5022545;28;20034;-63
2021/09/29 00:40:05;;;;;;;13.65;12.32;;;14.90;99.90;;;;;;5023308;28;20034;-63
2021/09/29 00:42:31;;;;;;;14.65;13.05;;;14.90;99.90;;;;;;5024040;28;20037;-63
2021/09/29 00:44:57;;;;;;;15.57;12.00;;;14.80;99.90;;;;;;5022477;28;20079;-63
2021/09/29 00:47:22;;;;;;;14.93;12.73;;;14.80;99.90;;;;;;5023707;28;20038;-64
2021/09/29 00:49:48;;;;;;;16.17;12.82;;;14.80;99.90;;;;;;5020241;28;20048;-63
2021/09/29 00:52:14;;;;;;;14.70;12.35;;;14.80;99.90;;;;;;5020500;28;20076;-62
2021/09/29 00:54:40;;;;;;;16.70;13.82;;;14.70;99.90;;;;;;5023396;28;20099;-63
2021/09/29 00:57:07;;;;;;;18.08;13.85;;;14.80;99.90;;;;;;5023499;28;20034;-63
2021/09/29 00:59:33;;;;;;;15.85;14.25;;;14.70;99.90;;;;;;5021376;28;20030;-64
2021/09/29 01:01:59;;;;;;;16.70;14.73;;;14.70;99.90;;;;;;5024226;28;20025;-63
2021/09/29 01:04:27;;;;;;;19.20;16.30;;;14.80;99.90;;;;;;5022660;28;20036;-63
2021/09/29 01:07:02;;;;;;;17.85;16.00;;;14.70;99.90;;;;;;5023739;28;20029;-63
2021/09/29 01:09:37;;;;;;;22.13;17.58;;;14.80;99.90;;;;;;5026142;28;20040;-64
2021/09/29 01:12:17;;;;;;;18.27;16.48;;;14.70;99.90;;;;;;5030201;28;20037;-64
2021/09/29 01:14:51;;;;;;;23.88;20.20;;;14.70;99.90;;;;;;5033802;28;20043;-63
2021/09/29 01:17:19;;;;;;;23.65;18.55;;;14.60;99.90;;;;;;5033420;28;20481;-64
2021/09/29 01:20:07;;;;;;;30.52;23.77;;;14.60;99.90;;;;;;5033283;28;20037;-64
2021/09/29 01:22:42;;;;;;;28.00;23.45;;;14.70;99.90;;;;;;5013083;28;20440;-64
2021/09/29 01:25:49;;;;;;;25.05;21.05;;;14.70;99.90;;;;;;5012511;28;20129;-63
2021/09/29 01:28:23;;;;;;;28.60;22.95;;;14.60;99.90;;;;;;5012919;28;20125;-64
2021/09/29 01:30:49;;;;;;;27.52;23.77;;;14.60;99.90;;;;;;5013291;28;20033;-63
2021/09/29 01:33:16;;;;;;;25.83;22.35;;;14.60;99.90;;;;;;5013015;28;20080;-64
2021/09/29 01:35:43;;;;;;;27.95;22.80;;;14.60;99.90;;;;;;5013695;28;20125;-65
2021/09/29 01:38:09;;;;;;;29.55;23.67;;;14.70;99.90;;;;;;5032607;28;20112;-64
2021/09/29 01:40:35;;;;;;;24.75;20.85;;;14.70;99.90;;;;;;5032955;28;20035;-63
2021/09/29 01:43:00;;;;;;;22.33;20.02;;;14.70;99.90;;;;;;5031741;28;20064;-63
2021/09/29 01:45:26;;;;;;;23.08;20.65;;;14.70;99.90;;;;;;5031962;28;20061;-64
2021/09/29 01:47:52;;;;;;;24.65;21.30;;;14.70;99.90;;;;;;5033866;28;20032;-64
2021/09/29 01:50:23;;;;;;;25.85;21.40;;;14.70;99.90;;;;;;5031573;28;20044;-64
2021/09/29 01:52:50;;;;;;;25.63;20.55;;;14.80;99.90;;;;;;5033149;28;20037;-64
2021/09/29 01:55:17;;;;;;;22.15;19.67;;;14.80;99.90;;;;;;5032581;28;20033;-65
2021/09/29 01:57:44;;;;;;;24.08;20.85;;;14.80;99.90;;;;;;5032613;28;20500;-64
2021/09/29 02:00:11;;;;;;;20.67;18.48;;;14.80;99.90;;;;;;5032348;28;20033;-64
2021/09/29 02:02:40;;;;;;;24.50;20.00;;;14.80;99.90;;;;;;5030861;28;20036;-65
2021/09/29 02:05:06;;;;;;;23.90;19.95;;;14.70;99.90;;;;;;5032846;28;20029;-63
2021/09/29 02:07:32;;;;;;;22.80;18.92;;;14.70;99.90;;;;;;5032812;28;20033;-64
2021/09/29 02:09:59;;;;;;;21.05;18.83;;;14.70;99.90;;;;;;5032640;28;20049;-63
2021/09/29 02:12:24;;;;;;;19.60;17.20;;;14.70;99.90;;;;;;5031877;28;20121;-64
2021/09/29 02:14:50;;;;;;;21.63;17.25;;;14.70;99.90;;;;;;5031834;28;20481;-63
2021/09/29 02:17:17;;;;;;;20.83;17.75;;;14.70;99.90;;;;;;5032629;28;20091;-63
2021/09/29 02:19:44;;;;;;;20.30;17.05;;;14.60;99.90;;;;;;5032263;28;20095;-64
2021/09/29 02:22:10;;;;;;;22.05;16.45;;;14.70;99.90;;;;;;5032320;28;20484;-63
2021/09/29 02:24:35;;;;;;;19.40;15.55;;;14.70;99.90;;;;;;5032778;28;20037;-62
2021/09/29 02:27:01;;;;;;;17.60;15.27;;;14.70;99.90;;;;;;5037122;28;20029;-63
2021/09/29 02:29:27;;;;;;;19.95;15.65;;;14.70;99.90;;;;;;5021148;28;20485;-63
2021/09/29 02:31:52;;;;;;;21.45;16.08;;;14.60;99.90;;;;;;5037369;28;20455;-63
2021/09/29 02:34:18;;;;;;;18.67;16.00;;;14.50;99.90;;;;;;5038177;28;20034;-64
2021/09/29 02:36:44;;;;;;;23.67;17.15;;;14.50;99.90;;;;;;5031219;28;20500;-63
2021/09/29 02:39:10;;;;;;;23.33;17.17;;;14.50;99.90;;;;;;5019711;28;20125;-64
2021/09/29 02:41:36;;;;;;;19.50;16.85;;;14.50;99.90;;;;;;5018962;28;20030;-64
2021/09/29 02:44:02;;;;;;;17.33;15.35;;;14.50;99.90;;;;;;5018492;28;20034;-65
2021/09/29 02:46:27;;;;;;;18.48;14.90;;;14.40;99.90;;;;;;5018100;28;20033;-64
2021/09/29 02:48:53;;;;;;;20.75;15.93;;;14.50;99.90;;;;;;5018202;28;20036;-64
2021/09/29 02:51:19;;;;;;;17.45;15.00;;;14.50;99.90;;;;;;5023136;28;20045;-65
2021/09/29 02:53:45;;;;;;;17.90;15.60;;;14.60;99.90;;;;;;5028129;28;20104;-64
2021/09/29 02:56:10;;;;;;;19.45;15.38;;;14.60;99.90;;;;;;5024043;28;20080;-64
2021/09/29 02:58:36;;;;;;;18.75;16.27;;;14.60;99.90;;;;;;5018918;28;20034;-65
2021/09/29 03:01:02;;;;;;;17.02;15.20;;;14.70;99.90;;;;;;5018344;28;20034;-65
2021/09/29 03:03:28;;;;;;;18.88;14.90;;;14.70;99.90;;;;;;5018889;28;20382;-64
2021/09/29 03:05:53;;;;;;;20.35;15.52;;;14.70;99.90;;;;;;5018903;28;20040;-64
2021/09/29 03:08:19;;;;;;;17.95;15.73;;;14.60;99.90;;;;;;5019094;28;20026;-64
2021/09/29 03:10:45;;;;;;;16.38;14.38;;;14.60;99.90;;;;;;5033605;28;20112;-64
2021/09/29 03:13:12;;;;;;;17.08;14.75;;;14.70;99.90;;;;;;5037340;28;20037;-64
2021/09/29 03:15:38;;;;;;;17.08;15.05;;;14.70;99.90;;;;;;5053289;28;20034;-63
2021/09/29 03:18:04;;;;;;;17.23;14.82;;;14.70;99.90;;;;;;5038778;28;20547;-63
2021/09/29 03:20:31;;;;;;;17.40;14.75;;;14.70;99.90;;;;;;5038403;28;20041;-64
2021/09/29 03:22:57;;;;;;;16.63;14.48;;;14.70;99.90;;;;;;5038350;28;20036;-65
2021/09/29 03:25:24;;;;;;;18.20;14.35;;;14.80;99.90;;;;;;5038730;28;20030;-65
2021/09/29 03:27:50;;;;;;;17.35;13.52;;;14.80;99.90;;;;;;5036877;28;20034;-63
2021/09/29 03:30:16;;;;;;;16.98;13.18;;;14.80;99.90;;;;;;5021184;28;20037;-62
2021/09/29 03:32:42;;;;;;;17.23;13.48;;;14.80;99.90;;;;;;5038308;28;20400;-63
2021/09/29 03:35:10;;;;;;;15.32;13.55;;;14.80;99.90;;;;;;5038875;28;20041;-64
2021/09/29 03:37:35;;;;;;;16.42;13.98;;;14.80;99.90;;;;;;5021369;28;20132;-63
2021/09/29 03:40:02;;;;;;;17.77;13.10;;;14.80;99.90;;;;;;5014061;28;20133;-64
2021/09/29 03:42:27;;;;;;;17.73;14.00;;;14.80;99.90;;;;;;5015823;28;20093;-63
2021/09/29 03:44:53;;;;;;;16.17;14.20;;;14.80;99.90;;;;;;5015534;28;20038;-63
2021/09/29 03:47:19;;;;;;;18.95;14.93;;;14.80;99.90;;;;;;5015846;28;20464;-63
2021/09/29 03:49:45;;;;;;;16.92;13.98;;;14.80;99.90;;;;;;5015972;28;20038;-64
2021/09/29 03:52:10;;;;;;;19.23;15.32;;;14.80;99.90;;;;;;5013831;28;20100;-64
2021/09/29 03:54:36;;;;;;;17.15;13.65;;;14.70;99.90;;;;;;5014123;28;20045;-64
2021/09/29 03:57:02;;;;;;;18.48;13.20;;;14.70;99.90;;;;;;5015238;28;20036;-63
2021/09/29 03:59:29;;;;;;;16.73;13.80;;;14.70;99.90;;;;;;5015167;28;20065;-63
2021/09/29 04:01:54;;;;;;;19.25;13.27;;;14.80;99.90;;;;;;5013826;28;20038;-63
2021/09/29 04:04:20;;;;;;;19.92;14.77;;;14.70;99.90;;;;;;5013715;28;20034;-62
2021/09/29 04:06:46;;;;;;;17.27;13.85;;;14.70;99.90;;;;;;5015233;28;20061;-64
2021/09/29 04:09:12;;;;;;;17.15;14.05;;;14.70;99.90;;;;;;5017904;28;20034;-64
2021/09/29 04:11:39;;;;;;;15.73;14.10;;;14.70;99.90;;;;;;5033503;28;20144;-65
2021/09/29 04:14:05;;;;;;;16.08;13.30;;;14.70;99.90;;;;;;5033431;28;20508;-64
2021/09/29 04:16:30;;;;;;;19.58;14.18;;;14.70;99.90;;;;;;5034315;28;20030;-64
2021/09/29 04:18:56;;;;;;;15.63;13.20;;;14.70;99.90;;;;;;5035309;28;20057;-64
2021/09/29 04:21:22;;;;;;;19.90;14.18;;;14.80;99.90;;;;;;5033193;28;20036;-64
2021/09/29 04:23:48;;;;;;;16.77;13.25;;;14.70;99.90;;;;;;5035012;28;20040;-64
2021/09/29 04:26:13;;;;;;;17.38;12.75;;;14.70;99.90;;;;;;5034859;28;20033;-63
2021/09/29 04:28:39;;;;;;;19.27;13.82;;;14.80;99.90;;;;;;5034795;28;20111;-63
2021/09/29 04:31:04;;;;;;;15.55;13.00;;;14.80;99.90;;;;;;5034138;28;20595;-62
2021/09/29 04:33:30;;;;;;;15.80;12.55;;;14.80;99.90;;;;;;5032945;28;20038;-63
2021/09/29 04:35:57;;;;;;;20.02;14.50;;;14.80;99.90;;;;;;5033215;28;20510;-64
2021/09/29 04:38:23;;;;;;;19.80;13.93;;;14.80;99.90;;;;;;5014339;28;20030;-64
2021/09/29 04:40:48;;;;;;;16.80;12.88;;;14.80;99.90;;;;;;5014097;28;20120;-64
2021/09/29 04:43:14;;;;;;;16.60;12.63;;;14.80;99.90;;;;;;5014966;28;20030;-63
2021/09/29 04:45:40;;;;;;;20.00;12.98;;;14.80;99.90;;;;;;5014736;28;20042;-64
2021/09/29 04:48:06;;;;;;;19.02;13.63;;;14.90;99.90;;;;;;5014483;28;20091;-64
2021/09/29 04:50:32;;;;;;;16.60;12.52;;;14.90;99.90;;;;;;5015941;28;20046;-64
2021/09/29 04:52:58;;;;;;;17.98;12.75;;;14.90;99.90;;;;;;5014001;28;20385;-64
2021/09/29 04:55:24;;;;;;;61.95;16.02;;;14.90;99.90;;;;;;5013358;28;20076;-64
2021/09/29 04:57:50;;;;;;;37.03;15.10;;;14.80;99.90;;;;;;5013307;28;20042;-64
2021/09/29 05:00:16;;;;;;;15.95;13.18;;;14.90;99.90;;;;;;5014001;28;20049;-64
2021/09/29 05:02:45;;;;;;;18.65;12.85;;;14.90;99.90;;;;;;5014039;28;20491;-64
2021/09/29 05:05:11;;;;;;;15.80;12.07;;;14.80;99.90;;;;;;5012579;28;20033;-64
2021/09/29 05:07:39;;;;;;;19.42;13.20;;;14.90;99.90;;;;;;5014908;28;20033;-64
2021/09/29 05:10:05;;;;;;;19.88;13.52;;;14.90;99.90;;;;;;5013893;28;20033;-64
2021/09/29 05:12:32;;;;;;;21.38;13.88;;;14.90;99.90;;;;;;5013560;28;20040;-64
2021/09/29 05:14:59;;;;;;;17.90;13.88;;;14.90;99.90;;;;;;5014391;28;20081;-63
2021/09/29 05:17:25;;;;;;;15.95;12.98;;;14.90;99.90;;;;;;5013578;28;20029;-64
2021/09/29 05:19:51;;;;;;;16.73;12.85;;;14.90;99.90;;;;;;5014609;28;20078;-64
2021/09/29 05:22:17;;;;;;;25.67;19.67;;;14.80;99.90;;;;;;5032805;28;20112;-64
2021/09/29 05:24:42;;;;;;;22.02;16.52;;;14.80;99.90;;;;;;5033823;28;20044;-64
2021/09/29 05:27:08;;;;;;;19.80;15.30;;;14.80;99.90;;;;;;5032666;28;20030;-63
2021/09/29 05:29:36;;;;;;;17.40;14.82;;;14.80;99.90;;;;;;5033230;28;20053;-65
2021/09/29 05:32:03;;;;;;;19.35;14.40;;;14.80;99.90;;;;;;5033159;28;20116;-65
2021/09/29 05:34:28;;;;;;;18.95;14.35;;;14.80;99.90;;;;;;5031447;28;20501;-63
2021/09/29 05:36:54;;;;;;;19.02;14.32;;;14.80;99.90;;;;;;5031588;28;20037;-64
2021/09/29 05:39:20;;;;;;;19.88;15.05;;;14.90;99.90;;;;;;5032144;28;20129;-64
2021/09/29 05:41:46;;;;;;;18.10;14.77;;;14.90;99.90;;;;;;5033159;28;20488;-65
2021/09/29 05:44:11;;;;;;;17.75;15.73;;;15.00;99.90;;;;;;5034121;28;20052;-64
2021/09/29 05:46:37;;;;;;;18.55;15.02;;;14.90;99.90;;;;;;5031980;28;20040;-64
2021/09/29 05:49:04;;;;;;;28.30;19.95;;;15.00;99.90;;;;;;5032712;28;20456;-63
2021/09/29 05:51:29;;;;;;;31.40;22.60;;;14.90;99.90;;;;;;5032767;28;20057;-64
2021/09/29 05:53:55;;;;;;;25.08;20.77;;;15.00;99.90;;;;;;5015122;28;20059;-64
2021/09/29 05:56:21;;;;;;;27.48;19.33;;;15.00;99.90;;;;;;5032504;28;20052;-63
2021/09/29 05:58:47;;;;;;;24.33;19.38;;;15.00;99.90;;;;;;5033272;28;20025;-64
2021/09/29 06:01:13;;;;;;;26.77;19.70;;;15.00;99.90;;;;;;5031623;28;20049;-63
2021/09/29 06:03:39;;;;;;;24.40;17.50;;;15.00;99.90;;;;;;5034997;28;20076;-64
2021/09/29 06:06:05;;;;;;;22.80;18.75;;;14.90;99.90;;;;;;5032977;28;20076;-62
2021/09/29 06:08:31;;;;;;;26.38;18.08;;;14.90;99.90;;;;;;5032643;28;20065;-64
2021/09/29 06:10:57;;;;;;;29.15;20.92;;;14.90;99.90;;;;;;5030037;28;20075;-64
2021/09/29 06:13:23;;;;;;;24.25;19.13;;;14.80;99.90;;;;;;5027469;28;20478;-63
2021/09/29 06:15:50;;;;;;;25.58;17.98;;;14.90;99.90;;;;;;5012863;28;20045;-63
2021/09/29 06:18:16;;;;;;;25.67;18.58;;;14.90;99.90;;;;;;5012704;28;20468;-63
2021/09/29 06:20:48;;;;;;;22.92;18.25;;;14.90;99.90;;;;;;5015638;28;20034;-64
2021/09/29 06:23:15;;;;;;;52.00;37.40;;;15.00;99.90;;;;;;5021013;28;20072;-65
2021/09/29 06:25:41;;;;;;;32.38;21.52;;;15.00;99.90;;;;;;5012496;28;20033;-64
2021/09/29 06:28:07;;;;;;;37.13;26.50;;;15.00;99.90;;;;;;5012742;28;20062;-63
2021/09/29 06:30:33;;;;;;;32.33;26.05;;;15.00;99.90;;;;;;5014514;28;20046;-65
2021/09/29 06:32:58;;;;;;;30.77;22.40;;;14.90;99.90;;;;;;5031655;28;20041;-64
2021/09/29 06:35:25;;;;;;;26.38;19.42;;;14.90;99.90;;;;;;5032279;28;20116;-63
2021/09/29 06:37:50;;;;;;;31.58;19.33;;;15.00;99.90;;;;;;5032131;28;20459;-64
2021/09/29 06:40:18;;;;;;;32.22;19.88;;;15.00;99.90;;;;;;5036382;28;20065;-63
2021/09/29 06:42:45;;;;;;;30.52;20.90;;;15.00;99.90;;;;;;5037991;28;20049;-67
2021/09/29 06:45:12;;;;;;;24.70;19.52;;;15.00;99.90;;;;;;5035937;28;20034;-64
2021/09/29 06:47:39;;;;;;;24.02;18.65;;;15.00;99.90;;;;;;5033660;28;20038;-64
2021/09/29 06:50:09;;;;;;;27.67;20.30;;;15.10;99.90;;;;;;5031532;28;20083;-63
2021/09/29 06:52:36;;;;;;;24.50;20.50;;;15.00;99.90;;;;;;5029056;28;20037;-64
2021/09/29 06:55:04;;;;;;;24.63;19.48;;;15.00;99.90;;;;;;5020308;28;20042;-63
2021/09/29 06:57:29;;;;;;;28.65;23.10;;;14.90;99.90;;;;;;5012584;28;20501;-64
2021/09/29 06:59:55;;;;;;;25.48;18.33;;;14.80;99.90;;;;;;5011034;28;20095;-65
2021/09/29 07:02:21;;;;;;;24.50;20.27;;;14.70;99.90;;;;;;5012394;28;20527;-64
2021/09/29 07:04:47;;;;;;;22.95;20.08;;;14.80;99.90;;;;;;5012462;28;20030;-62
2021/09/29 07:07:12;;;;;;;27.17;20.00;;;14.70;99.90;;;;;;5011458;28;20098;-64
2021/09/29 07:09:38;;;;;;;24.25;19.27;;;14.70;99.90;;;;;;5012705;28;20026;-64
2021/09/29 07:12:05;;;;;;;27.90;21.52;;;14.70;99.90;;;;;;5010940;28;20025;-64
2021/09/29 07:14:31;;;;;;;27.10;20.35;;;14.60;99.90;;;;;;5015860;28;20068;-64
2021/09/29 07:16:57;;;;;;;29.58;20.90;;;14.60;99.90;;;;;;5016010;28;20050;-64
2021/09/29 07:19:22;;;;;;;30.38;21.42;;;14.50;99.90;;;;;;5016403;28;20682;-63
2021/09/29 07:21:48;;;;;;;27.65;20.00;;;14.50;99.90;;;;;;5028231;28;20104;-64
2021/09/29 07:24:14;;;;;;;28.35;20.70;;;14.50;99.90;;;;;;5029061;28;20044;-65
2021/09/29 07:26:39;;;;;;;23.55;19.98;;;14.70;99.90;;;;;;5023181;28;20116;-64
2021/09/29 07:29:05;;;;;;;29.17;21.77;;;14.80;99.90;;;;;;5021535;28;20034;-64
2021/09/29 07:31:31;;;;;;;32.05;20.75;;;14.70;99.90;;;;;;5022389;28;20038;-63
2021/09/29 07:33:57;;;;;;;23.65;20.08;;;14.80;99.90;;;;;;5024702;28;20068;-64
2021/09/29 07:36:23;;;;;;;29.40;22.10;;;14.90;99.90;;;;;;5025114;28;20037;-65
2021/09/29 07:38:49;;;;;;;30.05;22.35;;;14.90;99.90;;;;;;5025101;28;20025;-65
2021/09/29 07:41:15;;;;;;;27.70;21.88;;;14.90;99.90;;;;;;5024657;28;20549;-62
2021/09/29 07:43:41;;;;;;;28.10;21.67;;;14.90;99.90;;;;;;5025970;28;20097;-64
2021/09/29 07:46:07;;;;;;;29.20;22.90;;;14.90;99.90;;;;;;5021891;28;20034;-64
2021/09/29 07:48:33;;;;;;;29.42;23.15;;;15.00;99.90;;;;;;5023900;28;20045;-64
2021/09/29 07:51:00;;;;;;;31.58;21.80;;;14.90;99.90;;;;;;5036272;28;20021;-64
2021/09/29 07:53:26;;;;;;;29.13;22.48;;;15.00;99.90;;;;;;5035500;28;20033;-65
2021/09/29 07:55:55;;;;;;;28.35;23.25;;;15.10;99.90;;;;;;5034737;28;20312;-65
2021/09/29 07:58:27;;;;;;;31.77;22.67;;;15.10;99.90;;;;;;5035222;28;20040;-64
2021/09/29 08:00:53;;;;;;;27.80;22.33;;;15.20;99.90;;;;;;5034615;28;20038;-64
2021/09/29 08:03:18;;;;;;;29.27;20.70;;;15.30;99.90;;;;;;5035222;28;20047;-64
2021/09/29 08:05:45;;;;;;;28.73;21.77;;;15.40;99.90;;;;;;5035389;28;20021;-63
2021/09/29 08:08:12;;;;;;;28.17;21.33;;;15.50;99.90;;;;;;5034826;28;20121;-64
2021/09/29 08:10:37;;;;;;;29.90;22.15;;;15.70;99.90;;;;;;5034173;28;20041;-66
2021/09/29 08:13:05;;;;;;;30.63;22.88;;;15.50;99.90;;;;;;5050787;28;20033;-63
2021/09/29 08:15:31;;;;;;;26.45;21.45;;;15.40;99.90;;;;;;5036679;28;20085;-64
2021/09/29 08:17:57;;;;;;;30.52;22.27;;;15.30;99.90;;;;;;5034682;28;20442;-64
2021/09/29 08:20:27;;;;;;;32.42;23.60;;;15.40;99.90;;;;;;5028965;28;20113;-62
2021/09/29 08:23:02;;;;;;;29.17;21.55;;;15.50;99.90;;;;;;5014222;28;20397;-64
2021/09/29 08:26:07;;;;;;;30.13;22.67;;;15.40;99.90;;;;;;5015679;28;20029;-65
2021/09/29 08:28:42;;;;;;;31.30;24.40;;;15.40;99.90;;;;;;5016372;28;20034;-63
2021/09/29 08:31:15;;;;;;;33.17;23.77;;;15.20;99.90;;;;;;5016731;28;20029;-64
2021/09/29 08:34:27;;;;;;;29.60;24.60;;;15.20;99.90;;;;;;5015187;28;20037;-65
2021/09/29 08:36:35;;;;;;;31.45;25.15;;;15.30;99.90;;;;;;5013364;28;20132;-63
2021/09/29 08:42:00;;;;;;;38.85;25.20;;;15.40;99.90;;;;;;5032826;28;20093;-64
2021/09/29 08:44:31;;;;;;;30.33;23.40;;;15.60;99.90;;;;;;5034954;28;20069;-64
2021/09/29 08:47:05;;;;;;;32.88;26.02;;;15.60;99.90;;;;;;5034163;28;20037;-64
2021/09/29 08:49:43;;;;;;;;;;;15.60;99.90;;;;;;5034550;28;20025;-63
2021/09/29 08:55:09;;;;;;;32.55;26.23;;;15.70;99.90;;;;;;5034102;28;20041;-63
2021/09/29 08:57:57;;;;;;;31.08;25.83;;;15.70;99.90;;;;;;5034452;28;20068;-64
2021/09/29 09:16:58;;;;;;;28.65;21.52;;;16.00;99.90;;;;;;5033697;28;20033;-63
2021/09/29 09:19:29;;;;;;;36.58;22.80;;;16.00;99.90;;;;;;5033017;28;20041;-62
2021/09/29 09:22:00;;;;;;;37.10;21.83;;;16.20;99.90;;;;;;5032948;28;20489;-63
2021/09/29 09:24:28;;;;;;;28.40;20.77;;;16.30;99.90;;;;;;5034512;28;20037;-64
2021/09/29 09:27:01;;;;;;;23.95;19.60;;;16.40;99.90;;;;;;5034597;28;20049;-64
2021/09/29 09:29:28;;;;;;;30.05;19.23;;;16.40;99.90;;;;;;5033546;28;20065;-64
2021/09/29 09:32:09;;;;;;;39.72;20.38;;;16.30;99.90;;;;;;5031737;28;20493;-63
2021/09/29 09:34:36;;;;;;;25.08;19.25;;;16.40;99.90;;;;;;5033405;28;20088;-62
2021/09/29 09:37:02;;;;;;;23.27;18.77;;;16.60;99.90;;;;;;5032694;28;20029;-63
2021/09/29 09:39:29;;;;;;;25.38;17.85;;;16.70;99.90;;;;;;5031727;28;20366;-64
2021/09/29 09:42:01;;;;;;;26.42;18.88;;;16.80;99.50;;;;;;5033131;28;20029;-63
2021/09/29 09:44:33;;;;;;;18.88;16.15;;;16.80;99.70;;;;;;5033178;28;20036;-63
2021/09/29 09:47:06;;;;;;;24.65;17.77;;;16.80;99.30;;;;;;5032989;28;20028;-64
2021/09/29 09:49:47;;;;;;;27.48;18.42;;;16.70;99.70;;;;;;5048611;28;20492;-64
2021/09/29 09:52:25;;;;;;;30.95;17.70;;;16.80;99.90;;;;;;5032538;28;20420;-63
2021/09/29 09:54:51;;;;;;;18.55;15.43;;;16.80;99.80;;;;;;5033152;28;20128;-63
2021/09/29 09:57:21;;;;;;;25.08;17.23;;;17.00;99.80;;;;;;5031378;28;20072;-64
2021/09/29 09:59:51;;;;;;;19.85;16.17;;;17.00;99.50;;;;;;5032569;28;20136;-63
2021/09/29 10:02:17;;;;;;;21.15;15.15;;;17.00;99.20;;;;;;5032482;28;20586;-64
2021/09/29 10:04:44;;;;;;;20.15;14.73;;;17.00;99.30;;;;;;5033806;28;20020;-63
2021/09/29 10:07:10;;;;;;;21.42;16.45;;;16.90;99.60;;;;;;5032641;28;20392;-64
2021/09/29 10:12:23;;;;;;;23.23;15.38;;;16.70;99.60;;;;;;5032692;28;20037;-62
2021/09/29 10:15:09;;;;;;;18.77;15.30;;;16.60;99.90;;;;;;5031901;28;20030;-64
2021/09/29 10:26:10;;;;;;;20.17;14.77;;;16.40;99.90;;;;;;5033112;28;20511;-64
2021/09/29 10:28:40;;;;;;;17.35;13.70;;;16.40;99.90;;;;;;5032570;28;20032;-63
2021/09/29 10:33:42;;;;;;;14.70;11.85;;;16.30;99.90;;;;;;5032371;28;20065;-63
2021/09/29 10:42:18;;;;;;;16.90;13.15;;;16.50;99.90;;;;;;4996134;28;20132;-64
2021/09/29 10:47:34;;;;;;;14.02;12.52;;;16.80;99.80;;;;;;5033384;28;20041;-64
2021/09/29 10:53:13;;;;;;;12.45;11.20;;;17.10;99.30;;;;;;5035818;28;20029;-63
2021/09/29 11:04:11;;;;;;;13.30;11.48;;;17.70;96.80;;;;;;5037098;28;20029;-63
2021/09/29 11:33:44;;;;;;;14.82;11.93;;;17.70;95.60;;;;;;5016247;28;20053;-65
2021/09/29 12:09:52;;;;;;;9.20;6.25;;;18.20;91.90;;;;;;5035691;28;20033;-64
2021/09/29 12:14:57;;;;;;;9.23;4.93;;;18.70;91.70;;;;;;5035389;28;20041;-65
2021/09/29 12:17:44;;;;;;;6.78;4.70;;;18.90;90.20;;;;;;5035223;28;20087;-65
2021/09/29 12:20:25;;;;;;;7.68;5.22;;;18.80;88.20;;;;;;5031238;28;20050;-66
2021/09/29 12:22:56;;;;;;;5.93;4.63;;;18.90;89.50;;;;;;5015325;28;20113;-65
2021/09/29 12:25:32;;;;;;;6.95;5.60;;;18.90;88.80;;;;;;5015446;28;20111;-63
2021/09/29 12:28:34;;;;;;;6.82;5.38;;;18.90;87.60;;;;;;5015021;28;20089;-65
2021/09/29 12:36:38;;;;;;;14.48;5.00;;;18.90;88.10;;;;;;5036492;28;20076;-64
2021/09/29 12:39:17;;;;;;;10.02;4.40;;;18.80;87.40;;;;;;5034150;28;20077;-64
2021/09/29 12:41:51;;;;;;;8.82;4.53;;;19.10;87.10;;;;;;5033298;28;20079;-65
2021/09/29 12:44:18;;;;;;;8.30;4.68;;;19.20;86.90;;;;;;5034443;28;20033;-63
2021/09/29 12:46:49;;;;;;;8.90;4.60;;;19.40;85.70;;;;;;5034089;28;20140;-63
2021/09/29 12:49:22;;;;;;;5.72;3.95;;;19.40;84.70;;;;;;5034563;28;20033;-62
2021/09/29 12:51:59;;;;;;;7.22;3.95;;;19.60;85.00;;;;;;5034778;28;20029;-64
2021/09/29 12:54:26;;;;;;;5.78;4.00;;;19.60;84.10;;;;;;5034335;28;20120;-65
2021/09/29 12:56:51;;;;;;;9.52;5.40;;;19.60;84.50;;;;;;5033523;28;20492;-65
2021/09/29 12:59:17;;;;;;;7.70;6.18;;;19.60;84.20;;;;;;5034125;28;20055;-64
2021/09/29 13:01:43;;;;;;;6.65;4.22;;;19.80;83.00;;;;;;5031975;28;20029;-66
2021/09/29 13:04:08;;;;;;;6.40;3.75;;;19.70;83.60;;;;;;5034388;28;20083;-65
2021/09/29 13:06:34;;;;;;;7.68;3.67;;;19.80;82.30;;;;;;5033359;28;20065;-64
2021/09/29 13:08:59;;;;;;;7.28;3.88;;;19.60;82.80;;;;;;5033992;28;20032;-64
2021/09/29 13:11:25;;;;;;;5.13;3.80;;;19.80;82.60;;;;;;5032443;28;20520;-64
2021/09/29 13:13:51;;;;;;;5.13;3.90;;;19.60;82.90;;;;;;5034905;28;20131;-65
2021/09/29 13:16:16;;;;;;;8.20;4.18;;;19.70;82.80;;;;;;5035434;28;20507;-65
2021/09/29 13:21:28;;;;;;;;;;;20.00;82.40;;;;;;5021077;28;20121;-64
2021/09/29 13:24:00;;;;;;;4.38;3.38;;;19.70;82.60;;;;;;5012895;28;19985;-64
2021/09/29 13:37:23;;;;;;;8.93;3.05;;;19.60;80.60;;;;;;5026677;28;20382;-62
2021/09/29 13:39:50;;;;;;;6.07;3.00;;;19.80;79.90;;;;;;5032551;28;20088;-64
2021/09/29 13:42:17;;;;;;;6.13;2.80;;;19.80;79.50;;;;;;5033710;28;20095;-64
2021/09/29 13:44:42;;;;;;;5.22;3.28;;;19.70;79.80;;;;;;5033473;28;20034;-63
2021/09/29 13:47:08;;;;;;;5.97;3.25;;;19.60;79.60;;;;;;5033948;28;20495;-63
2021/09/29 13:49:34;;;;;;;5.90;3.10;;;19.30;80.20;;;;;;5032068;28;20063;-64
2021/09/29 13:51:59;;;;;;;5.60;2.80;;;19.30;80.00;;;;;;5033194;28;20393;-64
2021/09/29 13:54:26;;;;;;;4.75;3.08;;;19.20;79.90;;;;;;5031795;28;20090;-64
2021/09/29 14:34:01;;;;;;;6.18;2.90;;;20.60;81.30;;;;;;5017876;28;20037;-67
2021/09/29 14:36:26;;;;;;;5.32;3.17;;;20.70;78.50;;;;;;5033324;28;20041;-65
2021/09/29 14:38:52;;;;;;;6.10;3.00;;;20.50;80.10;;;;;;5031608;28;20381;-65
2021/09/29 14:41:18;;;;;;;4.40;2.75;;;20.60;80.10;;;;;;5012984;28;20180;-65
2021/09/29 14:43:43;;;;;;;4.25;3.03;;;20.70;78.00;;;;;;5013333;28;20045;-65
2021/09/29 14:46:09;;;;;;;5.97;3.10;;;20.50;77.50;;;;;;5011511;28;20044;-65
2021/09/29 14:48:35;;;;;;;7.00;3.13;;;20.60;77.40;;;;;;5019937;28;20045;-64
2021/09/29 14:51:06;;;;;;;5.30;2.75;;;20.70;77.40;;;;;;5026807;28;20120;-65
2021/09/29 14:53:36;;;;;;;4.93;2.90;;;21.00;76.80;;;;;;5020548;28;20030;-64
2021/09/29 14:56:04;;;;;;;6.15;3.13;;;21.30;76.50;;;;;;5002656;28;20079;-63
2021/09/29 14:58:30;;;;;;;7.95;2.88;;;21.40;74.60;;;;;;5019416;28;20025;-65
2021/09/29 15:00:56;;;;;;;4.90;2.63;;;21.50;75.90;;;;;;5012233;28;20084;-65
2021/09/29 15:03:23;;;;;;;6.95;3.05;;;21.90;75.20;;;;;;5012547;28;20489;-64
2021/09/29 15:05:49;;;;;;;4.18;2.70;;;22.50;73.90;;;;;;5011295;28;20041;-64
2021/09/29 15:08:14;;;;;;;5.18;2.53;;;22.80;73.80;;;;;;5010074;28;20022;-63
2021/09/29 15:10:40;;;;;;;5.38;2.78;;;22.00;75.70;;;;;;5010707;28;20331;-64
2021/09/29 15:13:07;;;;;;;5.30;2.50;;;21.40;76.60;;;;;;5011810;28;20044;-64
2021/09/29 15:15:36;;;;;;;3.38;2.70;;;20.90;77.50;;;;;;5012365;28;20374;-64
2021/09/29 15:18:11;;;;;;;6.65;2.53;;;20.30;79.20;;;;;;5028783;28;20029;-65
2021/09/29 15:20:59;;;;;;;4.20;3.15;;;19.90;81.20;;;;;;5032545;28;20052;-64
2021/09/29 15:48:08;;;;;;;;;;;19.00;84.80;;;;;;5023033;28;20033;-66
2021/09/29 15:50:44;;;;;;;6.57;2.28;;;18.60;87.80;;;;;;5023680;28;19995;-63
2021/09/29 15:58:35;;;;;;;5.35;2.95;;;14.60;99.90;;;;;;5022550;28;20037;-63
2021/09/29 16:03:39;;;;;;;6.97;2.30;;;14.10;99.90;;;;;;5022761;28;20506;-64